Time;durP1;ratioP1;P1;durP2;ratioP2;P2;SDS_P1;SDS_P2;PMS_P1;PMS_P2;Temp;Humidity;BMP_temperature;BMP_pressure;BME280_temperature;BME280_humidity;BME280_pressure;Samples;Min_cycle;Max_cycle;Signal;HPM_P1;HPM_P2
2023/12/10 00:01:07;;;;;;;;;;;;;;;-1.65;100.00;99123.02;133982;1301;22485;-80
2023/12/10 00:04:08;;;;;;;;;;;;;;;-1.66;100.00;99115.66;133990;1295;22460;-80
2023/12/10 00:07:23;;;;;;;;;;;;;;;-1.66;100.00;99105.13;133967;1307;22484;-80
2023/12/10 00:10:32;;;;;;;;;;;;;;;-1.65;100.00;99097.43;133990;1301;22478;-80
2023/12/10 00:13:32;;;;;;;;;;;;;;;-1.65;100.00;99079.36;133996;1301;22462;-80
2023/12/10 00:16:33;;;;;;;;;;;;;;;-1.66;100.00;99068.31;133953;1301;22456;-80
2023/12/10 00:19:34;;;;;;;;;;;;;;;-1.65;100.00;99059.97;133962;1307;23359;-79
2023/12/10 00:23:00;;;;;;;;;;;;;;;-1.64;100.00;99065.94;133998;1306;22486;-80
2023/12/10 00:26:24;;;;;;;;;;;;;;;-1.61;100.00;99061.89;133985;1302;22642;-80
2023/12/10 00:29:33;;;;;;;;;;;;;;;-1.59;100.00;99052.35;133844;1302;22491;-80
2023/12/10 00:32:35;;;;;;;;;;;;;;;-1.56;100.00;99052.02;133980;1306;22497;-80
2023/12/10 00:35:35;;;;;;;;;;;;;;;-1.55;100.00;99045.00;133977;1304;22506;-80
2023/12/10 00:38:47;;;;;;;;;;;;;;;-1.52;100.00;99049.79;134004;1301;22671;-80
2023/12/10 00:41:48;;;;;;;;;;;;;;;-1.50;100.00;99051.48;133970;1306;22469;-80
2023/12/10 00:45:08;;;;;;;;;;;;;;;-1.48;100.00;99051.52;133988;1304;22460;-80
2023/12/10 00:48:33;;;;;;;;;;;;;;;-1.44;100.00;99051.61;133963;1304;22441;-79
2023/12/10 00:51:37;;;;;;;;;;;;;;;-1.42;100.00;99051.22;133956;1307;22627;-81
2023/12/10 00:54:38;;;;;;;;;;;;;;;-1.39;100.00;99052.40;133974;1299;22462;-79
2023/12/10 00:57:39;;;;;;;;;;;;;;;-1.36;100.00;99058.77;133988;1307;22473;-80
2023/12/10 01:00:40;;;;;;;;;;;;;;;-1.32;100.00;99060.61;133966;1299;22594;-80
2023/12/10 01:03:44;;;;;;;;;;;;;;;-1.29;100.00;99056.04;134006;1301;22484;-80
2023/12/10 01:06:50;;;;;;;;;;;;;;;-1.26;100.00;99056.49;134006;1302;22648;-80
2023/12/10 01:10:05;;;;;;;;;;;;;;;-1.23;100.00;99054.00;133964;1307;22471;-80
2023/12/10 01:13:09;;;;;;;;;;;;;;;-1.21;100.00;99054.83;133978;1307;22466;-80
2023/12/10 01:16:10;;;;;;;;;;;;;;;-1.17;100.00;99055.44;133994;1307;22593;-80
2023/12/10 01:19:12;;;;;;;;;;;;;;;-1.14;100.00;99058.34;133976;1306;22471;-80
2023/12/10 01:22:13;;;;;;;;;;;;;;;-1.13;100.00;99057.02;133972;1306;22489;-79
2023/12/10 01:25:14;;;;;;;;;;;;;;;-1.11;100.00;99059.88;133822;1306;22498;-80
2023/12/10 01:28:14;;;;;;;;;;;;;;;-1.11;100.00;99062.75;133984;1306;22450;-79
2023/12/10 01:31:19;;;;;;;;;;;;;;;-1.10;100.00;99070.66;133981;1289;22447;-80
2023/12/10 01:34:20;;;;;;;;;;;;;;;-1.09;100.00;99074.45;133965;1300;23017;-79
2023/12/10 01:37:23;;;;;;;;;;;;;;;-1.10;100.00;99078.30;133967;1299;23226;-80
2023/12/10 01:40:23;;;;;;;;;;;;;;;-1.10;100.00;99076.39;133983;1306;22482;-79
2023/12/10 01:43:54;;;;;;;;;;;;;;;-1.10;100.00;99068.94;133732;1302;22491;-79
2023/12/10 01:46:55;;;;;;;;;;;;;;;-1.11;100.00;99059.27;133998;1302;22480;-78
2023/12/10 01:49:56;;;;;;;;;;;;;;;-1.11;100.00;99058.95;133872;1305;22524;-79
2023/12/10 01:53:24;;;;;;;;;;;;;;;-1.10;100.00;99060.45;133961;1304;23261;-79
2023/12/10 01:56:42;;;;;;;;;;;;;;;-1.09;100.00;99054.48;133975;1306;22481;-80
2023/12/10 01:59:44;;;;;;;;;;;;;;;-1.09;100.00;99049.42;133991;1307;22991;-78
2023/12/10 02:02:57;;;;;;;;;;;;;;;-1.06;100.00;99048.88;133759;1307;22484;-79
2023/12/10 02:06:02;;;;;;;;;;;;;;;-1.05;100.00;99060.70;134003;1292;22453;-80
2023/12/10 02:09:18;;;;;;;;;;;;;;;-1.04;100.00;99061.23;133968;1301;22459;-80
2023/12/10 02:12:47;;;;;;;;;;;;;;;-1.04;100.00;99074.17;133999;1307;23390;-79
2023/12/10 02:15:56;;;;;;;;;;;;;;;-1.01;100.00;99064.30;131445;1305;3130680;-79
2023/12/10 02:19:00;;;;;;;;;;;;;;;-1.02;100.00;99055.46;133973;1302;22479;-79
2023/12/10 02:22:02;;;;;;;;;;;;;;;-1.02;100.00;99049.57;133962;1306;22456;-80
2023/12/10 02:25:05;;;;;;;;;;;;;;;-1.03;99.98;99047.44;133985;1301;22488;-79
2023/12/10 02:28:20;;;;;;;;;;;;;;;-1.07;99.91;99039.19;133967;1307;23455;-79
2023/12/10 02:31:28;;;;;;;;;;;;;;;-1.08;99.96;99021.27;133970;1301;23461;-79
2023/12/10 02:34:40;;;;;;;;;;;;;;;-1.10;99.94;99015.13;133986;1301;22471;-80
2023/12/10 02:37:42;;;;;;;;;;;;;;;-1.09;99.94;99008.50;134001;1307;22459;-79
2023/12/10 02:40:52;;;;;;;;;;;;;;;-1.07;99.95;99007.46;134004;1304;23162;-79
2023/12/10 02:43:56;;;;;;;;;;;;;;;-1.05;99.99;99004.84;133950;1299;22590;-79
2023/12/10 02:47:15;;;;;;;;;;;;;;;-1.02;100.00;98997.02;133870;1306;22543;-79
2023/12/10 02:50:17;;;;;;;;;;;;;;;-1.01;99.97;98996.71;134017;1304;22556;-79
2023/12/10 02:53:22;;;;;;;;;;;;;;;-0.98;99.95;99000.00;133983;1304;22527;-79
2023/12/10 02:56:22;;;;;;;;;;;;;;;-0.97;99.94;98996.80;133779;1300;22502;-78
2023/12/10 02:59:23;;;;;;;;;;;;;;;-0.96;100.00;98996.68;133990;1301;22479;-79
2023/12/10 03:02:25;;;;;;;;;;;;;;;-0.95;99.98;98991.55;134004;1305;22456;-79
2023/12/10 03:05:29;;;;;;;;;;;;;;;-0.93;99.95;98996.77;134004;1299;23143;-78
2023/12/10 03:08:50;;;;;;;;;;;;;;;-0.91;99.98;98994.23;133971;1299;22471;-79
2023/12/10 03:12:02;;;;;;;;;;;;;;;-0.89;99.97;98993.87;133986;1301;22472;-78
2023/12/10 03:15:08;;;;;;;;;;;;;;;-0.87;99.94;98992.21;133961;1301;23517;-79
2023/12/10 03:18:21;;;;;;;;;;;;;;;-0.86;99.94;98989.34;133979;1299;22463;-79
2023/12/10 03:21:21;;;;;;;;;;;;;;;-0.84;99.95;98985.86;133946;1307;22486;-79
2023/12/10 03:24:24;;;;;;;;;;;;;;;-0.81;99.95;98987.56;134014;1304;23313;-79
2023/12/10 03:27:24;;;;;;;;;;;;;;;-0.79;99.92;98991.67;133991;1306;22597;-79
2023/12/10 03:30:26;;;;;;;;;;;;;;;-0.75;99.91;98992.58;133978;1301;23593;-79
2023/12/10 03:33:27;;;;;;;;;;;;;;;-0.72;99.96;98994.60;133965;1306;23275;-79
2023/12/10 03:36:29;;;;;;;;;;;;;;;-0.69;99.86;98995.96;133996;1307;23551;-79
2023/12/10 03:39:35;;;;;;;;;;;;;;;-0.67;99.87;98991.12;133975;1307;22452;-79
2023/12/10 03:42:35;;;;;;;;;;;;;;;-0.65;99.86;98996.46;133958;1307;22685;-79
2023/12/10 03:45:36;;;;;;;;;;;;;;;-0.62;99.73;98994.88;133977;1307;23228;-79
2023/12/10 03:48:38;;;;;;;;;;;;;;;-0.61;99.87;98999.45;134010;1301;22439;-79
2023/12/10 03:51:38;;;;;;;;;;;;;;;-0.59;99.63;99000.17;134007;1306;22473;-79
2023/12/10 03:54:38;;;;;;;;;;;;;;;-0.56;99.60;99004.48;133946;1307;22496;-79
2023/12/10 03:57:39;;;;;;;;;;;;;;;-0.55;99.75;99007.83;133961;1301;25272;-79
2023/12/10 04:00:40;;;;;;;;;;;;;;;-0.52;99.76;99015.41;133982;1301;23295;-79
2023/12/10 04:04:00;;;;;;;;;;;;;;;-0.50;99.83;99020.77;133990;1306;22546;-78
2023/12/10 04:07:22;;;;;;;;;;;;;;;-0.47;99.93;99025.10;133937;1300;23702;-78
2023/12/10 04:10:25;;;;;;;;;;;;;;;-0.46;99.83;99023.96;133998;1301;22463;-78
2023/12/10 04:13:42;;;;;;;;;;;;;;;-0.46;99.91;99027.94;133998;1306;23449;-78
2023/12/10 04:16:57;;;;;;;;;;;;;;;-0.47;99.99;99033.80;133958;1304;22566;-79
2023/12/10 04:20:07;;;;;;;;;;;;;;;-0.49;100.00;99040.01;133978;1304;22464;-79
2023/12/10 04:23:11;;;;;;;;;;;;;;;-0.49;100.00;99037.95;133983;1307;22438;-78
2023/12/10 04:26:14;;;;;;;;;;;;;;;-0.49;100.00;99046.59;133971;1304;23196;-78
2023/12/10 04:29:14;;;;;;;;;;;;;;;-0.48;100.00;99041.52;134001;1306;23274;-79
2023/12/10 04:32:15;;;;;;;;;;;;;;;-0.48;100.00;99044.80;133966;1301;23279;-78
2023/12/10 04:35:27;;;;;;;;;;;;;;;-0.48;100.00;99047.02;133977;1290;22589;-78
2023/12/10 04:38:42;;;;;;;;;;;;;;;-0.47;100.00;99049.08;133941;1300;22513;-79
2023/12/10 04:41:54;;;;;;;;;;;;;;;-0.48;100.00;99049.82;133957;1301;22477;-78
2023/12/10 04:44:55;;;;;;;;;;;;;;;-0.49;100.00;99052.86;133951;1297;22510;-78
2023/12/10 04:47:56;;;;;;;;;;;;;;;-0.50;100.00;99053.15;133973;1298;22462;-78
2023/12/10 04:50:56;;;;;;;;;;;;;;;-0.52;100.00;99054.99;133956;1299;22553;-78
2023/12/10 04:53:57;;;;;;;;;;;;;;;-0.52;100.00;99059.35;134012;1306;22471;-78
2023/12/10 04:57:10;;;;;;;;;;;;;;;-0.54;100.00;99057.73;133980;1301;22533;-77
2023/12/10 05:00:37;;;;;;;;;;;;;;;-0.55;100.00;99063.21;133999;1301;22484;-78
2023/12/10 05:03:38;;;;;;;;;;;;;;;-0.56;100.00;99065.27;133978;1304;22506;-78
2023/12/10 05:06:38;;;;;;;;;;;;;;;-0.56;100.00;99068.06;133818;1306;22670;-78
2023/12/10 05:09:39;;;;;;;;;;;;;;;-0.57;100.00;99070.73;133944;1301;22471;-78
2023/12/10 05:12:44;;;;;;;;;;;;;;;-0.58;100.00;99070.06;133930;1301;23269;-77
2023/12/10 05:15:44;;;;;;;;;;;;;;;-0.58;100.00;99073.39;133966;1298;22449;-78
2023/12/10 05:18:44;;;;;;;;;;;;;;;-0.58;100.00;99074.77;134000;1306;23673;-77
2023/12/10 05:21:57;;;;;;;;;;;;;;;-0.58;100.00;99082.22;133991;1306;24478;-77
2023/12/10 05:25:14;;;;;;;;;;;;;;;-0.58;100.00;99078.96;133972;1306;22429;-77
2023/12/10 05:28:17;;;;;;;;;;;;;;;-0.58;100.00;99081.23;133978;1301;22461;-77
2023/12/10 05:31:17;;;;;;;;;;;;;;;-0.58;100.00;99088.36;133841;1304;22443;-78
2023/12/10 05:34:29;;;;;;;;;;;;;;;-0.59;100.00;99078.70;133991;1301;22482;-77
2023/12/10 05:37:34;;;;;;;;;;;;;;;-0.60;100.00;99084.15;133990;1300;22532;-77
2023/12/10 05:40:34;;;;;;;;;;;;;;;-0.60;100.00;99087.44;134005;1298;23142;-77
2023/12/10 05:43:35;;;;;;;;;;;;;;;-0.60;100.00;99089.88;133990;1307;23669;-77
2023/12/10 05:46:37;;;;;;;;;;;;;;;-0.60;100.00;99093.52;134016;1304;22446;-78
2023/12/10 05:49:40;;;;;;;;;;;;;;;-0.60;100.00;99093.55;133856;1306;22460;-77
2023/12/10 05:52:40;;;;;;;;;;;;;;;-0.60;100.00;99095.30;133996;1307;22461;-78
2023/12/10 05:55:41;;;;;;;;;;;;;;;-0.59;100.00;99097.83;133984;1294;22530;-77
2023/12/10 05:58:41;;;;;;;;;;;;;;;-0.59;100.00;99096.73;133990;1307;23221;-78
2023/12/10 06:01:42;;;;;;;;;;;;;;;-0.57;100.00;99101.99;133969;1303;22461;-77
2023/12/10 06:04:42;;;;;;;;;;;;;;;-0.56;100.00;99105.05;133993;1301;22543;-77
2023/12/10 06:07:43;;;;;;;;;;;;;;;-0.56;100.00;99111.44;133997;1306;22457;-77
2023/12/10 06:10:47;;;;;;;;;;;;;;;-0.55;100.00;99119.39;133986;1298;22499;-78
2023/12/10 06:14:17;;;;;;;;;;;;;;;-0.55;100.00;99125.06;134009;1301;22443;-78
2023/12/10 06:17:22;;;;;;;;;;;;;;;-0.53;100.00;99127.56;133953;1307;22491;-78
2023/12/10 06:20:23;;;;;;;;;;;;;;;-0.53;100.00;99130.28;134024;1301;22448;-78
2023/12/10 06:23:24;;;;;;;;;;;;;;;-0.52;100.00;99136.63;133965;1299;22464;-78
2023/12/10 06:26:24;;;;;;;;;;;;;;;-0.51;100.00;99141.27;134000;1306;22467;-78
2023/12/10 06:29:25;;;;;;;;;;;;;;;-0.51;100.00;99144.75;134011;1301;22459;-77
2023/12/10 06:32:26;;;;;;;;;;;;;;;-0.50;100.00;99154.78;133967;1301;22459;-78
2023/12/10 06:35:29;;;;;;;;;;;;;;;-0.50;100.00;99158.27;134010;1306;22490;-78
2023/12/10 06:38:32;;;;;;;;;;;;;;;-0.50;100.00;99163.31;133993;1304;22490;-78
2023/12/10 06:41:32;;;;;;;;;;;;;;;-0.51;100.00;99169.40;133992;1306;22547;-78
2023/12/10 06:44:35;;;;;;;;;;;;;;;-0.51;100.00;99161.61;133997;1298;22463;-77
2023/12/10 06:47:36;;;;;;;;;;;;;;;-0.51;100.00;99167.48;134024;1306;22841;-78
2023/12/10 06:50:43;;;;;;;;;;;;;;;-0.50;100.00;99174.91;133963;1298;23269;-77
2023/12/10 06:54:04;;;;;;;;;;;;;;;-0.50;100.00;99183.42;133883;1301;22485;-78
2023/12/10 06:57:07;;;;;;;;;;;;;;;-0.49;100.00;99186.98;134026;1301;22457;-77
2023/12/10 07:00:09;;;;;;;;;;;;;;;-0.48;100.00;99193.35;133844;1301;22521;-77
2023/12/10 07:03:20;;;;;;;;;;;;;;;-0.47;100.00;99200.91;134027;1301;22449;-91
2023/12/10 07:06:21;;;;;;;;;;;;;;;-0.45;100.00;99209.27;134014;1301;22474;-84
2023/12/10 07:09:27;;;;;;;;;;;;;;;-0.43;100.00;99206.70;134006;1301;23267;-82
2023/12/10 07:12:27;;;;;;;;;;;;;;;-0.41;100.00;99211.61;133910;1298;23717;-82
2023/12/10 07:15:28;;;;;;;;;;;;;;;-0.40;100.00;99208.73;134023;1306;22493;-83
2023/12/10 07:18:29;;;;;;;;;;;;;;;-0.39;100.00;99206.23;134021;1301;22445;-84
2023/12/10 07:21:30;;;;;;;;;;;;;;;-0.37;100.00;99209.89;134018;1303;23215;-80
2023/12/10 07:24:31;;;;;;;;;;;;;;;-0.36;100.00;99214.17;134023;1299;22452;-84
2023/12/10 07:27:32;;;;;;;;;;;;;;;-0.35;100.00;99211.60;134029;1301;22502;-79
2023/12/10 07:30:39;;;;;;;;;;;;;;;-0.32;100.00;99215.02;134014;1304;23323;-79
2023/12/10 07:33:48;;;;;;;;;;;;;;;-0.28;100.00;99213.89;133848;1299;23615;-79
2023/12/10 07:37:09;;;;;;;;;;;;;;;-0.25;100.00;99216.59;133989;1298;23277;-81
2023/12/10 07:40:14;;;;;;;;;;;;;;;-0.24;100.00;99216.87;133984;1298;22479;-84
2023/12/10 07:43:18;;;;;;;;;;;;;;;-0.22;100.00;99215.66;133937;1298;22481;-83
2023/12/10 07:46:18;;;;;;;;;;;;;;;-0.18;100.00;99221.29;133962;1296;22453;-83
2023/12/10 07:49:19;;;;;;;;;;;;;;;-0.16;100.00;99227.88;133994;1300;23248;-84
2023/12/10 07:52:19;;;;;;;;;;;;;;;-0.14;100.00;99225.10;133818;1307;22454;-84
2023/12/10 07:55:19;;;;;;;;;;;;;;;-0.13;100.00;99228.48;133951;1306;23918;-84
2023/12/10 07:58:37;;;;;;;;;;;;;;;-0.10;100.00;99241.15;133975;1306;22459;-84
2023/12/10 08:01:41;;;;;;;;;;;;;;;-0.08;100.00;99240.27;133955;1301;22471;-84
2023/12/10 08:05:17;;;;;;;;;;;;;;;-0.05;100.00;99240.74;133960;1291;22469;-84
2023/12/10 08:08:33;;;;;;;;;;;;;;;-0.03;100.00;99240.95;133983;1301;22470;-84
2023/12/10 08:11:40;;;;;;;;;;;;;;;-0.01;100.00;99245.27;134026;1307;22458;-84
2023/12/10 08:14:50;;;;;;;;;;;;;;;-0.01;100.00;99252.04;133987;1304;22457;-84
2023/12/10 08:17:50;;;;;;;;;;;;;;;0.02;100.00;99250.14;134018;1301;22490;-84
2023/12/10 08:21:01;;;;;;;;;;;;;;;0.05;100.00;99253.88;134025;1298;22538;-84
2023/12/10 08:24:02;;;;;;;;;;;;;;;0.09;100.00;99257.08;133997;1301;22456;-84
2023/12/10 08:27:07;;;;;;;;;;;;;;;0.12;100.00;99252.98;134014;1306;22469;-84
2023/12/10 08:30:12;;;;;;;;;;;;;;;0.17;100.00;99251.56;133995;1307;23805;-83
2023/12/10 08:33:14;;;;;;;;;;;;;;;0.21;100.00;99259.58;133999;1301;22442;-84
2023/12/10 08:36:33;;;;;;;;;;;;;;;0.26;100.00;99257.42;133981;1301;22457;-85
2023/12/10 08:39:33;;;;;;;;;;;;;;;0.29;100.00;99268.83;133734;1304;22469;-85
2023/12/10 08:42:34;;;;;;;;;;;;;;;0.33;100.00;99278.45;134023;1307;22504;-86
2023/12/10 08:45:42;;;;;;;;;;;;;;;0.35;100.00;99277.58;133992;1301;22497;-85
2023/12/10 08:48:47;;;;;;;;;;;;;;;0.37;100.00;99278.30;134012;1306;22576;-85
2023/12/10 08:51:53;;;;;;;;;;;;;;;0.39;100.00;99274.43;134017;1303;22484;-84
2023/12/10 08:55:02;;;;;;;;;;;;;;;0.41;100.00;99277.59;133986;1306;22459;-84
2023/12/10 08:58:07;;;;;;;;;;;;;;;0.41;100.00;99277.98;134012;1301;22454;-84
2023/12/10 09:01:16;;;;;;;;;;;;;;;0.40;100.00;99282.54;134024;1301;22594;-83
2023/12/10 09:04:27;;;;;;;;;;;;;;;0.41;100.00;99285.99;134020;1291;22453;-84
2023/12/10 09:07:28;;;;;;;;;;;;;;;0.40;100.00;99296.67;133997;1306;22610;-82
2023/12/10 09:10:28;;;;;;;;;;;;;;;0.39;100.00;99296.23;133997;1303;22535;-84
2023/12/10 09:13:29;;;;;;;;;;;;;;;0.39;100.00;99291.17;134002;1306;22456;-83
2023/12/10 09:16:29;;;;;;;;;;;;;;;0.41;100.00;99290.31;134027;1301;22443;-84
2023/12/10 09:19:32;;;;;;;;;;;;;;;0.43;100.00;99288.64;133998;1307;23199;-84
2023/12/10 09:22:32;;;;;;;;;;;;;;;0.43;100.00;99281.12;134030;1301;23821;-82
2023/12/10 09:25:33;;;;;;;;;;;;;;;0.43;100.00;99283.04;133983;1301;22485;-83
2023/12/10 09:28:36;;;;;;;;;;;;;;;0.44;100.00;99286.61;134024;1301;22468;-87
2023/12/10 09:31:36;;;;;;;;;;;;;;;0.45;100.00;99282.50;134012;1301;22459;-81
2023/12/10 09:34:38;;;;;;;;;;;;;;;0.45;100.00;99274.34;134008;1307;22476;-81
2023/12/10 09:37:38;;;;;;;;;;;;;;;0.45;100.00;99279.91;133974;1301;23587;-84
2023/12/10 09:40:40;;;;;;;;;;;;;;;0.44;100.00;99282.10;134006;1298;22489;-84
2023/12/10 09:43:40;;;;;;;;;;;;;;;0.43;100.00;99285.67;134013;1304;22569;-85
2023/12/10 09:46:43;;;;;;;;;;;;;;;0.43;100.00;99287.38;133903;1298;23233;-82
2023/12/10 09:49:45;;;;;;;;;;;;;;;0.43;100.00;99288.79;134021;1298;22464;-83
2023/12/10 09:52:45;;;;;;;;;;;;;;;0.43;100.00;99289.13;134027;1306;22469;-83
2023/12/10 09:55:49;;;;;;;;;;;;;;;0.42;100.00;99291.96;134054;1305;22604;-83
2023/12/10 09:58:49;;;;;;;;;;;;;;;0.41;100.00;99293.81;134010;1301;23303;-84
2023/12/10 10:01:53;;;;;;;;;;;;;;;0.40;100.00;99304.17;134031;1298;22477;-83
2023/12/10 10:04:56;;;;;;;;;;;;;;;0.38;100.00;99301.04;133944;1306;23330;-84
2023/12/10 10:07:56;;;;;;;;;;;;;;;0.38;100.00;99303.29;134032;1294;23270;-84
2023/12/10 10:10:57;;;;;;;;;;;;;;;0.38;100.00;99299.21;134046;1301;22933;-86
2023/12/10 10:13:58;;;;;;;;;;;;;;;0.39;100.00;99312.56;134007;1301;23399;-87
2023/12/10 10:17:00;;;;;;;;;;;;;;;0.40;100.00;99321.88;134022;1301;23281;-88
2023/12/10 10:20:06;;;;;;;;;;;;;;;0.41;100.00;99324.77;134056;1301;23148;-86
2023/12/10 10:23:08;;;;;;;;;;;;;;;0.45;100.00;99315.95;134074;1303;22427;-86
2023/12/10 10:26:10;;;;;;;;;;;;;;;0.49;100.00;99311.27;134076;1299;22553;-85
2023/12/10 10:29:11;;;;;;;;;;;;;;;0.51;100.00;99305.35;133907;1301;22599;-85
2023/12/10 10:32:16;;;;;;;;;;;;;;;0.54;100.00;99303.61;134048;1301;23274;-85
2023/12/10 10:35:17;;;;;;;;;;;;;;;0.56;100.00;99311.61;134058;1299;22458;-85
2023/12/10 10:38:18;;;;;;;;;;;;;;;0.58;100.00;99308.84;134006;1301;23270;-86
2023/12/10 10:41:22;;;;;;;;;;;;;;;0.60;100.00;99315.08;134016;1301;22491;-85
2023/12/10 10:44:23;;;;;;;;;;;;;;;0.64;100.00;99313.08;134005;1300;22453;-84
2023/12/10 10:47:24;;;;;;;;;;;;;;;0.66;100.00;99316.51;134029;1301;22477;-85
2023/12/10 10:50:25;;;;;;;;;;;;;;;0.68;100.00;99317.37;134036;1301;22509;-85
2023/12/10 10:53:26;;;;;;;;;;;;;;;0.71;100.00;99312.84;134026;1301;22444;-85
2023/12/10 10:56:27;;;;;;;;;;;;;;;0.74;100.00;99312.77;134018;1299;23777;-85
2023/12/10 10:59:30;;;;;;;;;;;;;;;0.78;100.00;99313.81;133990;1301;22567;-84
2023/12/10 11:02:31;;;;;;;;;;;;;;;0.84;100.00;99321.02;133969;1301;23264;-85
2023/12/10 11:05:32;;;;;;;;;;;;;;;0.88;100.00;99325.33;133999;1301;22467;-87
2023/12/10 11:08:32;;;;;;;;;;;;;;;0.93;100.00;99330.93;134021;1298;23396;-87
2023/12/10 11:11:38;;;;;;;;;;;;;;;0.96;100.00;99328.07;134004;1298;22466;-88
2023/12/10 11:14:40;;;;;;;;;;;;;;;1.01;100.00;99326.92;133951;1300;22533;-88
2023/12/10 11:17:50;;;;;;;;;;;;;;;1.07;100.00;99324.52;133961;1298;22432;-88
2023/12/10 11:20:50;;;;;;;;;;;;;;;1.11;100.00;99325.41;133981;1301;22482;-83
2023/12/10 11:23:51;;;;;;;;;;;;;;;1.15;100.00;99324.92;133978;1298;23572;-91
2023/12/10 11:26:51;;;;;;;;;;;;;;;1.19;100.00;99325.99;133928;1298;22485;-86
2023/12/10 11:29:52;;;;;;;;;;;;;;;1.25;100.00;99329.02;133986;1306;22488;-85
2023/12/10 11:32:52;;;;;;;;;;;;;;;1.30;100.00;99330.28;134029;1292;24520;-85
2023/12/10 11:35:54;;;;;;;;;;;;;;;1.37;100.00;99332.56;133986;1300;22461;-85
2023/12/10 11:38:54;;;;;;;;;;;;;;;1.42;100.00;99339.78;134021;1298;22461;-86
2023/12/10 11:41:55;;;;;;;;;;;;;;;1.46;100.00;99339.28;134004;1299;23538;-85
2023/12/10 11:44:55;;;;;;;;;;;;;;;1.51;100.00;99345.67;133983;1301;22542;-86
2023/12/10 11:47:55;;;;;;;;;;;;;;;1.57;100.00;99345.82;134019;1306;22420;-86
2023/12/10 11:50:56;;;;;;;;;;;;;;;1.61;100.00;99348.27;134007;1301;22555;-90
2023/12/10 11:53:56;;;;;;;;;;;;;;;1.65;100.00;99348.82;134014;1304;23185;-90
2023/12/10 11:56:57;;;;;;;;;;;;;;;1.68;100.00;99349.47;133999;1301;23134;-87
2023/12/10 12:00:00;;;;;;;;;;;;;;;1.72;100.00;99348.42;134025;1294;22443;-91
2023/12/10 12:03:05;;;;;;;;;;;;;;;1.74;100.00;99352.42;134004;1288;22495;-86
2023/12/10 12:06:08;;;;;;;;;;;;;;;1.75;100.00;99350.27;133933;1301;22464;-86
2023/12/10 12:09:13;;;;;;;;;;;;;;;1.76;100.00;99345.49;133989;1301;22733;-90
2023/12/10 12:12:15;;;;;;;;;;;;;;;1.76;100.00;99344.95;133979;1305;23730;-90
2023/12/10 12:15:16;;;;;;;;;;;;;;;1.77;100.00;99348.83;134031;1301;22539;-89
2023/12/10 12:18:23;;;;;;;;;;;;;;;1.80;100.00;99349.45;133997;1304;22539;-88
2023/12/10 12:21:23;;;;;;;;;;;;;;;1.84;100.00;99347.27;133851;1301;22464;-87
2023/12/10 12:24:24;;;;;;;;;;;;;;;1.89;100.00;99348.37;134077;1298;22576;-89
2023/12/10 12:27:24;;;;;;;;;;;;;;;1.94;100.00;99350.78;134080;1298;22534;-94
2023/12/10 12:30:26;;;;;;;;;;;;;;;1.94;100.00;99351.59;134133;1298;22516;-85
2023/12/10 12:33:35;;;;;;;;;;;;;;;1.95;100.00;99353.77;134101;1301;22448;-92
2023/12/10 12:36:38;;;;;;;;;;;;;;;1.96;100.00;99356.02;134186;1299;22487;-91
2023/12/10 12:39:38;;;;;;;;;;;;;;;1.95;100.00;99365.98;134216;1304;22471;-94
2023/12/10 12:42:39;;;;;;;;;;;;;;;2.00;100.00;99362.98;134167;1305;22472;-89
2023/12/10 12:45:43;;;;;;;;;;;;;;;2.07;100.00;99354.20;134178;1298;22466;-93
2023/12/10 12:48:47;;;;;;;;;;;;;;;2.14;100.00;99351.63;134296;1298;22469;-92
2023/12/10 12:51:48;;;;;;;;;;;;;;;2.23;100.00;99350.00;134356;1298;22481;-90
2023/12/10 12:54:48;;;;;;;;;;;;;;;2.32;100.00;99354.86;134352;1298;22548;-85
2023/12/10 12:57:49;;;;;;;;;;;;;;;2.38;100.00;99355.69;134245;1299;22441;-88
2023/12/10 13:00:49;;;;;;;;;;;;;;;2.43;100.00;99355.27;134334;1301;23320;-91
2023/12/10 13:03:50;;;;;;;;;;;;;;;2.47;100.00;99362.42;134205;1301;22468;-92
2023/12/10 13:06:51;;;;;;;;;;;;;;;2.50;100.00;99364.06;134229;1304;22445;-91
2023/12/10 13:09:51;;;;;;;;;;;;;;;2.51;100.00;99361.59;134099;1298;22457;-91
2023/12/10 13:12:52;;;;;;;;;;;;;;;2.48;100.00;99367.23;134174;1294;22462;-92
2023/12/10 13:15:54;;;;;;;;;;;;;;;2.43;100.00;99368.50;134098;1301;23269;-93
2023/12/10 13:19:00;;;;;;;;;;;;;;;2.40;100.00;99371.42;134117;1304;22474;-88
2023/12/10 13:22:01;;;;;;;;;;;;;;;2.38;100.00;99370.92;134057;1301;22537;-85
2023/12/10 13:25:04;;;;;;;;;;;;;;;2.35;100.00;99375.90;134021;1300;23092;-90
2023/12/10 13:28:05;;;;;;;;;;;;;;;2.33;100.00;99378.86;134105;1298;23191;-88
2023/12/10 13:31:06;;;;;;;;;;;;;;;2.31;100.00;99380.78;134084;1307;22601;-90
2023/12/10 13:34:06;;;;;;;;;;;;;;;2.29;100.00;99378.83;134091;1307;22501;-88
2023/12/10 13:37:09;;;;;;;;;;;;;;;2.29;100.00;99379.71;134111;1301;22489;-88
2023/12/10 13:40:10;;;;;;;;;;;;;;;2.29;100.00;99380.90;134078;1301;22496;-90
2023/12/10 13:43:11;;;;;;;;;;;;;;;2.30;100.00;99386.10;134086;1304;22549;-87
2023/12/10 13:46:14;;;;;;;;;;;;;;;2.30;100.00;99386.59;134135;1301;22464;-87
2023/12/10 13:49:19;;;;;;;;;;;;;;;2.29;100.00;99386.87;133963;1301;22470;-90
2023/12/10 13:52:23;;;;;;;;;;;;;;;2.28;100.00;99388.73;134082;1306;22822;-88
2023/12/10 13:55:23;;;;;;;;;;;;;;;2.25;100.00;99394.16;133973;1301;22435;-87
2023/12/10 13:58:24;;;;;;;;;;;;;;;2.23;100.00;99393.96;134082;1300;22463;-88
2023/12/10 14:01:24;;;;;;;;;;;;;;;2.23;100.00;99393.95;134061;1303;22470;-84
2023/12/10 14:04:24;;;;;;;;;;;;;;;2.25;100.00;99391.56;134007;1301;23384;-84
2023/12/10 14:07:30;;;;;;;;;;;;;;;2.25;100.00;99390.30;134008;1304;23350;-83
2023/12/10 14:10:31;;;;;;;;;;;;;;;2.28;100.00;99387.84;134014;1299;22479;-84
2023/12/10 14:13:33;;;;;;;;;;;;;;;2.29;100.00;99394.59;133838;1307;22469;-84
2023/12/10 14:16:34;;;;;;;;;;;;;;;2.28;100.00;99399.36;133884;1300;311200;-86
2023/12/10 14:19:34;;;;;;;;;;;;;;;2.29;100.00;99404.70;134039;1298;23174;-85
2023/12/10 14:22:38;;;;;;;;;;;;;;;2.31;100.00;99406.60;134013;1304;22512;-86
2023/12/10 14:25:42;;;;;;;;;;;;;;;2.33;100.00;99403.84;134020;1304;22469;-87
2023/12/10 14:28:51;;;;;;;;;;;;;;;2.35;100.00;99405.59;134060;1298;22494;-90
2023/12/10 14:31:51;;;;;;;;;;;;;;;2.37;100.00;99407.63;134044;1301;22463;-91
2023/12/10 14:34:55;;;;;;;;;;;;;;;2.40;100.00;99411.62;134007;1306;22461;-90
2023/12/10 14:37:58;;;;;;;;;;;;;;;2.41;100.00;99411.30;133996;1302;22479;-84
2023/12/10 14:40:58;;;;;;;;;;;;;;;2.44;100.00;99413.28;134016;1289;22477;-87
2023/12/10 14:44:01;;;;;;;;;;;;;;;2.47;100.00;99419.02;134025;1305;23404;-85
2023/12/10 14:47:02;;;;;;;;;;;;;;;2.50;100.00;99421.20;133962;1298;22475;-89
2023/12/10 14:50:12;;;;;;;;;;;;;;;2.53;100.00;99427.73;133985;1302;22549;-88
2023/12/10 14:53:12;;;;;;;;;;;;;;;2.57;100.00;99427.91;133883;1305;23355;-86
2023/12/10 14:56:16;;;;;;;;;;;;;;;2.59;100.00;99425.60;134000;1301;22573;-87
2023/12/10 14:59:19;;;;;;;;;;;;;;;2.61;100.00;99430.54;134009;1299;22476;-88
2023/12/10 15:02:22;;;;;;;;;;;;;;;2.62;100.00;99427.47;133922;1301;23140;-89
2023/12/10 15:05:23;;;;;;;;;;;;;;;2.63;100.00;99432.65;134027;1303;23239;-88
2023/12/10 15:08:24;;;;;;;;;;;;;;;2.63;100.00;99429.45;134054;1306;22980;-85
2023/12/10 15:11:25;;;;;;;;;;;;;;;2.65;100.00;99424.98;134049;1298;22475;-87
2023/12/10 15:14:28;;;;;;;;;;;;;;;2.66;100.00;99433.27;133959;1302;22509;-86
2023/12/10 15:17:29;;;;;;;;;;;;;;;2.68;100.00;99432.39;133948;1304;23108;-89
2023/12/10 15:20:33;;;;;;;;;;;;;;;2.70;100.00;99434.64;134063;1306;22482;-88
2023/12/10 15:23:34;;;;;;;;;;;;;;;2.72;100.00;99435.88;134068;1303;22467;-88
2023/12/10 15:26:34;;;;;;;;;;;;;;;2.74;100.00;99430.83;134032;1301;22715;-86
2023/12/10 15:29:35;;;;;;;;;;;;;;;2.76;100.00;99435.02;134072;1301;22509;-86
2023/12/10 15:32:38;;;;;;;;;;;;;;;2.78;100.00;99432.00;134064;1306;23220;-92
2023/12/10 15:35:39;;;;;;;;;;;;;;;2.80;100.00;99433.97;134060;1304;22562;-91
2023/12/10 15:38:40;;;;;;;;;;;;;;;2.81;100.00;99436.80;134066;1304;22473;-88
2023/12/10 15:41:44;;;;;;;;;;;;;;;2.84;100.00;99439.53;133990;1306;22461;-88